Modulus 4 — UBBJ2 — position and weather

sailwx.info

Track history (hours):
 
Tides and Currents Weather Stations Pressure Air Temp Water Temp Dewpoint Dewpoint Depression Visibility Wind Speed Wind Dir Waves Ship Positions

Modulus 4

Last reported at 2017-Oct-20 19:08 UTC. Time now 2017-Oct-22 15:39 UTC.
Position N 45°13' E 036°28'.

Length 90 m; draft 3.6 m.

Type: Cargo ship. MMSI: 273357280.

Date/timePositionNaut miles runAvg speedWind from/ knotsBaromVisibWave heightAir tempDewpointWater temp
2017-Oct-20 19:08N 45°13' E 036°28'5 7.6
2017-Oct-20 18:26N 45°18' E 036°30'4 9.0
2017-Oct-20 18:00N 45°20' E 036°34'4 8.3
2017-Oct-20 17:30N 45°22' E 036°40'3 5.9
2017-Oct-20 17:00N 45°25' E 036°41'3 6.8
2017-Oct-20 16:30N 45°28' E 036°39'1 0.3
2017-Oct-20 13:07N 45°29' E 036°38'0 0.2
2017-Oct-20 12:53N 45°29' E 036°38'2 4.6
2017-Oct-20 12:30N 45°30' E 036°40'  
2017-Oct-15 15:53N 45°32' E 036°44'410.6
2017-Oct-15 15:31N 45°28' E 036°42'611.1
2017-Oct-15 15:01N 45°22' E 036°40'10 9.6
2017-Oct-15 14:01N 45°17' E 036°29'3 5.2
2017-Oct-15 13:25N 45°14' E 036°29'3 6.6
2017-Oct-15 12:56N 45°11' E 036°29'0 0.2
2017-Oct-15 12:20N 45°11' E 036°29'0 0.1
2017-Oct-15 11:53N 45°11' E 036°29'0 0.0
2017-Oct-15 11:26N 45°11' E 036°29'0 0.0
2017-Oct-15 10:56N 45°11' E 036°29'0 0.0
2017-Oct-15 10:23N 45°11' E 036°29'0 0.0
2017-Oct-15 09:08N 45°11' E 036°29'0 0.0
2017-Oct-15 08:14N 45°11' E 036°29'0 0.0
2017-Oct-15 07:59N 45°11' E 036°29'0 0.0
2017-Oct-15 07:20N 45°11' E 036°29'0 0.0
2017-Oct-15 06:59N 45°11' E 036°29'0 0.0
2017-Oct-15 06:26N 45°11' E 036°29'0 0.0
2017-Oct-15 05:56N 45°11' E 036°29'0 0.0
2017-Oct-15 05:23N 45°11' E 036°29'0 0.0
2017-Oct-15 04:53N 45°11' E 036°29'0 0.0
2017-Oct-15 04:05N 45°11' E 036°29'0 0.0
2017-Oct-15 03:59N 45°11' E 036°29'0 0.0
2017-Oct-15 02:47N 45°11' E 036°29'0 0.0
2017-Oct-15 01:56N 45°11' E 036°29'0 0.0
2017-Oct-15 01:29N 45°11' E 036°29'0 0.0
2017-Oct-15 00:20N 45°11' E 036°29'0 0.0
2017-Oct-14 23:47N 45°11' E 036°29'0 0.0
2017-Oct-14 14:14N 45°11' E 036°29'0 0.0
2017-Oct-14 13:47N 45°11' E 036°29'0 0.0
2017-Oct-14 13:08N 45°11' E 036°29'0 0.1
2017-Oct-14 12:59N 45°11' E 036°29'0 0.0
2017-Oct-14 12:20N 45°11' E 036°29'0 0.1
2017-Oct-14 11:56N 45°11' E 036°29'0 0.0
2017-Oct-14 11:20N 45°11' E 036°29'0 0.0
2017-Oct-14 10:59N 45°11' E 036°29'0 0.0
2017-Oct-14 10:17N 45°11' E 036°29'0 0.0
2017-Oct-14 09:05N 45°11' E 036°29'0 0.1
2017-Oct-14 09:00N 45°11' E 036°29'  
2017-Oct-10 22:04N 40°45' E 028°58'110.5
2017-Oct-10 21:58N 40°45' E 028°60'510.7
2017-Oct-10 21:30N 40°45' E 029°06'510.8
2017-Oct-10 21:00N 40°45' E 029°13'510.4
2017-Oct-10 20:30N 40°44' E 029°20'5 9.5
2017-Oct-10 19:57N 40°45' E 029°27'  
Track history (hours):
 
Tides and Currents Weather Stations Pressure Air Temp Water Temp Dewpoint Dewpoint Depression Visibility Wind Speed Wind Dir Waves Ship Positions

Modulus 4

Last reported at 2017-Oct-20 19:08 UTC. Time now 2017-Oct-22 15:39 UTC.
Position N 45°13' E 036°28'.

Length 90 m; draft 3.6 m.

Type: Cargo ship. MMSI: 273357280.

Date/timePositionNaut miles runAvg speedWind from/ knotsBaromVisibWave heightAir tempDewpointWater temp
2017-Oct-20 19:08N 45°13' E 036°28'5 7.6
2017-Oct-20 18:26N 45°18' E 036°30'4 9.0
2017-Oct-20 18:00N 45°20' E 036°34'4 8.3
2017-Oct-20 17:30N 45°22' E 036°40'3 5.9
2017-Oct-20 17:00N 45°25' E 036°41'3 6.8
2017-Oct-20 16:30N 45°28' E 036°39'1 0.3
2017-Oct-20 13:07N 45°29' E 036°38'0 0.2
2017-Oct-20 12:53N 45°29' E 036°38'2 4.6
2017-Oct-20 12:30N 45°30' E 036°40'  
2017-Oct-15 15:53N 45°32' E 036°44'410.6
2017-Oct-15 15:31N 45°28' E 036°42'611.1
2017-Oct-15 15:01N 45°22' E 036°40'10 9.6
2017-Oct-15 14:01N 45°17' E 036°29'3 5.2
2017-Oct-15 13:25N 45°14' E 036°29'3 6.6
2017-Oct-15 12:56N 45°11' E 036°29'0 0.2
2017-Oct-15 12:20N 45°11' E 036°29'0 0.1
2017-Oct-15 11:53N 45°11' E 036°29'0 0.0
2017-Oct-15 11:26N 45°11' E 036°29'0 0.0
2017-Oct-15 10:56N 45°11' E 036°29'0 0.0
2017-Oct-15 10:23N 45°11' E 036°29'0 0.0
2017-Oct-15 09:08N 45°11' E 036°29'0 0.0
2017-Oct-15 08:14N 45°11' E 036°29'0 0.0
2017-Oct-15 07:59N 45°11' E 036°29'0 0.0
2017-Oct-15 07:20N 45°11' E 036°29'0 0.0
2017-Oct-15 06:59N 45°11' E 036°29'0 0.0
2017-Oct-15 06:26N 45°11' E 036°29'0 0.0
2017-Oct-15 05:56N 45°11' E 036°29'0 0.0
2017-Oct-15 05:23N 45°11' E 036°29'0 0.0
2017-Oct-15 04:53N 45°11' E 036°29'0 0.0
2017-Oct-15 04:05N 45°11' E 036°29'0 0.0
2017-Oct-15 03:59N 45°11' E 036°29'0 0.0
2017-Oct-15 02:47N 45°11' E 036°29'0 0.0
2017-Oct-15 01:56N 45°11' E 036°29'0 0.0
2017-Oct-15 01:29N 45°11' E 036°29'0 0.0
2017-Oct-15 00:20N 45°11' E 036°29'0 0.0
2017-Oct-14 23:47N 45°11' E 036°29'0 0.0
2017-Oct-14 14:14N 45°11' E 036°29'0 0.0
2017-Oct-14 13:47N 45°11' E 036°29'0 0.0
2017-Oct-14 13:08N 45°11' E 036°29'0 0.1
2017-Oct-14 12:59N 45°11' E 036°29'0 0.0
2017-Oct-14 12:20N 45°11' E 036°29'0 0.1
2017-Oct-14 11:56N 45°11' E 036°29'0 0.0
2017-Oct-14 11:20N 45°11' E 036°29'0 0.0
2017-Oct-14 10:59N 45°11' E 036°29'0 0.0
2017-Oct-14 10:17N 45°11' E 036°29'0 0.0
2017-Oct-14 09:05N 45°11' E 036°29'0 0.1
2017-Oct-14 09:00N 45°11' E 036°29'  
2017-Oct-10 22:04N 40°45' E 028°58'110.5
2017-Oct-10 21:58N 40°45' E 028°60'510.7
2017-Oct-10 21:30N 40°45' E 029°06'510.8
2017-Oct-10 21:00N 40°45' E 029°13'510.4
2017-Oct-10 20:30N 40°44' E 029°20'5 9.5
2017-Oct-10 19:57N 40°45' E 029°27'  

Dump ship's entire track history